Time;durP1;ratioP1;P1;durP2;ratioP2;P2;SDS_P1;SDS_P2;PMS_P1;PMS_P2;Temp;Humidity;BMP_temperature;BMP_pressure;BME280_temperature;BME280_humidity;BME280_pressure;Samples;Min_cycle;Max_cycle;Signal;HPM_P1;HPM_P2
2023/04/09 00:00:00;;;;;;;33.50;10.37;;;;;;;41.05;36.49;100910.56;5014128;28;20444;-85
2023/04/09 00:02:26;;;;;;;27.33;8.83;;;;;;;41.34;36.38;100890.78;5013183;28;20428;-85
2023/04/09 00:04:52;;;;;;;26.70;7.90;;;;;;;41.14;36.86;100870.53;5013878;28;20450;-85
2023/04/09 00:07:18;;;;;;;34.90;9.30;;;;;;;40.89;37.48;100849.66;5013287;28;20454;-85
2023/04/09 00:09:44;;;;;;;26.50;8.40;;;;;;;40.69;37.94;100851.97;5013680;28;20448;-85
2023/04/09 00:12:10;;;;;;;27.73;8.63;;;;;;;40.66;37.88;100847.19;5013507;28;20514;-85
2023/04/09 00:14:36;;;;;;;28.53;9.97;;;;;;;40.85;37.50;100835.09;5013739;28;20476;-85
2023/04/09 00:17:02;;;;;;;23.33;10.60;;;;;;;40.95;37.16;100823.91;5012861;28;20444;-85
2023/04/09 00:19:28;;;;;;;21.70;7.67;;;;;;;40.98;36.40;100825.94;5013970;28;20429;-85
2023/04/09 00:21:55;;;;;;;28.93;11.67;;;;;;;40.99;36.63;100831.06;5012723;28;20423;-84
2023/04/09 00:24:21;;;;;;;31.60;10.83;;;;;;;41.17;37.13;100833.69;5013833;28;20842;-85
2023/04/09 00:26:48;;;;;;;25.00;9.80;;;;;;;41.30;36.65;100825.25;5013422;28;20424;-86
2023/04/09 00:29:14;;;;;;;25.00;9.73;;;;;;;41.27;36.37;100814.25;5011043;28;20432;-85
2023/04/09 00:31:40;;;;;;;26.33;11.97;;;;;;;41.25;36.81;100814.59;5013503;28;20463;-85
2023/04/09 00:34:06;;;;;;;27.93;10.53;;;;;;;41.20;36.66;100814.78;5012777;28;20436;-85
2023/04/09 00:36:32;;;;;;;28.87;11.30;;;;;;;41.28;37.54;100824.00;5005686;28;20437;-85
2023/04/09 00:38:58;;;;;;;25.70;8.40;;;;;;;41.14;37.49;100818.03;5013456;28;20424;-85
2023/04/09 00:41:24;;;;;;;30.30;8.70;;;;;;;41.22;37.41;100822.59;5013089;28;20436;-86
2023/04/09 00:43:49;;;;;;;26.67;7.70;;;;;;;41.13;37.33;100824.56;5014482;28;20924;-87
2023/04/09 00:46:17;;;;;;;18.97;8.20;;;;;;;41.21;37.24;100838.16;5012834;28;20785;-87
2023/04/09 00:48:43;;;;;;;18.27;8.83;;;;;;;41.19;35.77;100837.69;5013090;28;20455;-88
2023/04/09 00:51:09;;;;;;;18.97;8.97;;;;;;;41.14;34.71;100840.59;5012895;28;20468;-85
2023/04/09 00:53:35;;;;;;;22.27;8.83;;;;;;;40.71;35.38;100848.94;5014071;28;20432;-85
2023/04/09 00:56:03;;;;;;;26.83;10.13;;;;;;;40.78;35.58;100844.56;5013097;28;20907;-85
2023/04/09 00:58:29;;;;;;;29.67;8.07;;;;;;;40.85;34.93;100835.91;5012929;28;20859;-86
2023/04/09 01:00:55;;;;;;;21.37;7.00;;;;;;;40.74;34.65;100840.91;5013347;28;20440;-86
2023/04/09 01:03:21;;;;;;;19.33;6.73;;;;;;;40.72;34.63;100840.44;5012856;28;20464;-85
2023/04/09 01:05:54;;;;;;;38.30;7.50;;;;;;;40.81;34.24;100833.03;5029100;28;20467;-86
2023/04/09 01:08:45;;;;;;;17.27;7.57;;;;;;;40.94;34.50;100838.59;5013076;28;20423;-85
2023/04/09 01:11:32;;;;;;;20.13;7.83;;;;;;;41.07;34.55;100845.75;5001202;28;20468;-85
2023/04/09 01:14:11;;;;;;;23.80;6.17;;;;;;;40.87;34.14;100813.81;5012089;28;20578;-85
2023/04/09 01:16:43;;;;;;;20.10;6.87;;;;;;;40.91;34.17;100782.94;5012482;28;20439;-85
2023/04/09 01:19:27;;;;;;;18.93;7.80;;;;;;;41.06;34.13;100770.66;5012090;28;20437;-85
2023/04/09 01:21:56;;;;;;;19.47;7.73;;;;;;;40.75;34.57;100766.34;5007543;28;20435;-84
2023/04/09 01:24:45;;;;;;;23.67;9.00;;;;;;;40.93;34.74;100755.41;5012434;28;20432;-85
2023/04/09 01:27:13;;;;;;;27.00;9.93;;;;;;;40.80;35.22;100747.13;5012092;28;20460;-85
2023/04/09 01:29:46;;;;;;;22.53;9.73;;;;;;;40.94;35.60;100763.22;5027150;28;20428;-87
2023/04/09 01:32:15;;;;;;;23.13;8.00;;;;;;;41.15;35.85;100778.78;5012193;28;20818;-85
2023/04/09 01:34:43;;;;;;;19.40;9.70;;;;;;;40.71;37.03;100786.38;5012348;28;20420;-86
2023/04/09 01:37:11;;;;;;;35.37;9.60;;;;;;;40.73;36.78;100779.47;5012813;28;20448;-85
2023/04/09 01:39:38;;;;;;;25.13;9.40;;;;;;;40.61;37.58;100773.94;5012051;28;20441;-84
2023/04/09 01:42:08;;;;;;;27.10;9.13;;;;;;;40.85;36.80;100758.94;5011156;28;20435;-84
2023/04/09 01:44:37;;;;;;;25.50;10.53;;;;;;;40.56;37.32;100736.06;5012103;28;20475;-84
2023/04/09 01:47:03;;;;;;;27.07;9.63;;;;;;;40.65;36.72;100725.94;5012303;28;20432;-85
2023/04/09 01:49:30;;;;;;;23.03;8.27;;;;;;;40.47;37.40;100716.25;5012045;28;20416;-84
2023/04/09 01:51:56;;;;;;;20.00;10.03;;;;;;;40.72;36.55;100719.97;5012537;28;20468;-84
2023/04/09 01:54:22;;;;;;;21.07;8.70;;;;;;;40.70;36.20;100716.78;5012186;28;20428;-85
2023/04/09 01:56:48;;;;;;;14.80;7.23;;;;;;;40.94;35.46;100708.81;5012206;28;20428;-85
2023/04/09 01:59:14;;;;;;;15.50;7.40;;;;;;;40.81;35.54;100710.63;5013018;28;20519;-84
2023/04/09 02:01:52;;;;;;;16.77;9.03;;;;;;;40.88;35.57;100720.19;5012681;28;20421;-85
2023/04/09 02:04:33;;;;;;;18.10;8.30;;;;;;;40.93;35.36;100729.00;5012297;28;20432;-84
2023/04/09 02:07:17;;;;;;;15.87;7.97;;;;;;;41.12;34.38;100720.38;5012846;28;20436;-86
2023/04/09 02:09:45;;;;;;;21.40;7.90;;;;;;;41.00;34.39;100714.84;5002895;28;20509;-87
2023/04/09 02:12:14;;;;;;;15.53;8.37;;;;;;;40.71;35.08;100719.19;5013462;28;21011;-86
2023/04/09 02:14:45;;;;;;;13.43;7.23;;;;;;;41.03;34.37;100708.78;5014100;28;20527;-84
2023/04/09 02:17:11;;;;;;;18.03;9.33;;;;;;;40.83;34.44;100704.09;5012082;28;20975;-85
2023/04/09 02:19:42;;;;;;;12.30;7.10;;;;;;;40.72;34.55;100711.81;5016459;28;20425;-85
2023/04/09 02:22:09;;;;;;;15.83;8.37;;;;;;;40.55;35.11;100716.22;5020269;28;20859;-84
2023/04/09 02:24:35;;;;;;;24.07;8.13;;;;;;;40.53;35.26;100706.81;5012257;28;20483;-84
2023/04/09 02:27:01;;;;;;;17.73;7.80;;;;;;;40.37;35.05;100703.03;5011831;28;20483;-84
2023/04/09 02:29:27;;;;;;;18.57;9.37;;;;;;;40.66;35.30;100703.06;5011859;28;20516;-84
2023/04/09 02:31:54;;;;;;;17.03;8.60;;;;;;;40.75;34.91;100705.72;5011577;28;20531;-84
2023/04/09 02:34:20;;;;;;;20.13;8.57;;;;;;;40.76;34.85;100691.81;5011801;28;20515;-84
2023/04/09 02:36:46;;;;;;;17.70;9.90;;;;;;;40.49;35.39;100695.78;5011548;28;20417;-85
2023/04/09 02:39:11;;;;;;;16.47;8.83;;;;;;;40.56;34.95;100698.00;5011644;28;20425;-84
2023/04/09 02:41:37;;;;;;;20.50;9.17;;;;;;;40.77;35.01;100696.13;5011550;28;20428;-84
2023/04/09 02:44:04;;;;;;;15.63;9.10;;;;;;;40.83;34.77;100704.09;5011144;28;20423;-83
2023/04/09 02:46:30;;;;;;;19.67;7.57;;;;;;;40.41;35.06;100703.97;5011460;28;20936;-84
2023/04/09 02:48:56;;;;;;;17.10;7.80;;;;;;;40.40;35.12;100705.09;5010942;28;20455;-84
2023/04/09 02:51:22;;;;;;;18.23;10.10;;;;;;;40.56;34.75;100703.44;5011292;28;20456;-84
2023/04/09 02:53:48;;;;;;;17.30;11.00;;;;;;;40.77;34.63;100709.72;5007173;28;21027;-83
2023/04/09 02:56:14;;;;;;;16.03;8.20;;;;;;;40.89;34.12;100710.94;5009546;28;20489;-84
2023/04/09 02:58:40;;;;;;;15.50;8.83;;;;;;;40.98;33.92;100715.19;5011326;28;20925;-84
2023/04/09 03:01:06;;;;;;;16.93;8.30;;;;;;;40.91;33.88;100725.00;5011275;28;20424;-84
2023/04/09 03:03:32;;;;;;;14.47;8.73;;;;;;;40.92;34.21;100732.03;5010996;28;20805;-85
2023/04/09 03:05:57;;;;;;;17.27;9.13;;;;;;;40.89;34.27;100730.75;5010851;28;20876;-86
2023/04/09 03:08:23;;;;;;;18.30;7.60;;;;;;;41.14;33.49;100733.66;5010990;28;20428;-86
2023/04/09 03:10:49;;;;;;;11.13;7.20;;;;;;;41.15;33.59;100732.53;5010201;28;20538;-86
2023/04/09 03:13:15;;;;;;;18.10;8.77;;;;;;;41.07;33.65;100742.34;5010690;28;20480;-87
2023/04/09 03:15:41;;;;;;;14.43;8.30;;;;;;;41.00;33.86;100755.66;5010311;28;20177;-86
2023/04/09 03:18:07;;;;;;;15.83;8.30;;;;;;;40.98;34.01;100758.72;5011613;28;20189;-86
2023/04/09 03:20:38;;;;;;;19.30;8.80;;;;;;;41.06;33.67;100749.69;5010406;28;20972;-87
2023/04/09 03:23:04;;;;;;;10.03;6.63;;;;;;;41.11;33.68;100751.44;5010131;28;20511;-87
2023/04/09 03:25:30;;;;;;;19.87;7.87;;;;;;;40.80;34.36;100744.41;5011032;28;20430;-86
2023/04/09 03:27:56;;;;;;;15.43;9.20;;;;;;;40.72;34.63;100737.09;5010648;28;20425;-84
2023/04/09 03:30:22;;;;;;;18.43;10.00;;;;;;;40.94;34.29;100740.66;5010509;28;20466;-84
2023/04/09 03:32:47;;;;;;;19.37;9.23;;;;;;;40.96;34.02;100720.19;5010622;28;20178;-84
2023/04/09 03:35:13;;;;;;;13.13;7.97;;;;;;;40.95;34.22;100717.81;5010706;28;20474;-85
2023/04/09 03:37:39;;;;;;;17.53;7.57;;;;;;;40.85;34.21;100713.50;5011134;28;20181;-86
2023/04/09 03:40:06;;;;;;;18.53;8.80;;;;;;;40.93;34.09;100703.72;5010718;28;20423;-85
2023/04/09 03:42:33;;;;;;;14.00;7.50;;;;;;;40.96;34.08;100701.13;5010774;28;20430;-85
2023/04/09 03:45:00;;;;;;;12.03;7.87;;;;;;;40.99;34.03;100699.66;5010108;28;20444;-84
2023/04/09 03:47:26;;;;;;;14.50;9.53;;;;;;;41.06;33.95;100686.31;5010404;28;20423;-85
2023/04/09 03:49:52;;;;;;;14.10;8.43;;;;;;;41.13;34.21;100693.94;5010322;28;20429;-85
2023/04/09 03:52:18;;;;;;;15.00;8.77;;;;;;;41.14;34.02;100696.38;5011102;28;20464;-85
2023/04/09 03:54:44;;;;;;;12.73;7.63;;;;;;;41.13;34.21;100692.06;5009934;28;20428;-86
2023/04/09 03:57:10;;;;;;;16.27;8.87;;;;;;;41.19;34.47;100698.88;5011158;28;20444;-85
2023/04/09 03:59:36;;;;;;;15.70;8.57;;;;;;;41.20;34.10;100702.41;5010146;28;20479;-85
2023/04/09 04:02:02;;;;;;;18.00;9.17;;;;;;;41.13;34.28;100707.56;5010518;28;20443;-85
2023/04/09 04:04:28;;;;;;;19.93;10.23;;;;;;;41.20;34.26;100719.53;5011152;28;20503;-85
2023/04/09 04:06:54;;;;;;;18.90;7.63;;;;;;;41.13;34.12;100715.72;5013627;28;20445;-85
2023/04/09 04:09:20;;;;;;;17.10;9.73;;;;;;;41.12;34.66;100714.94;5013916;28;20440;-85
2023/04/09 04:11:46;;;;;;;14.70;10.67;;;;;;;41.14;34.50;100717.34;5013668;28;20459;-85
2023/04/09 04:14:12;;;;;;;15.70;9.00;;;;;;;41.20;33.92;100730.41;5013025;28;20518;-85
2023/04/09 04:16:39;;;;;;;20.30;9.97;;;;;;;40.94;34.33;100713.47;5013574;28;20428;-84
2023/04/09 04:19:06;;;;;;;16.07;8.67;;;;;;;41.03;34.69;100731.31;5013587;28;20428;-85
2023/04/09 04:21:32;;;;;;;12.57;8.80;;;;;;;41.14;34.15;100725.50;5013764;28;20419;-85
2023/04/09 04:23:58;;;;;;;18.43;9.23;;;;;;;41.20;34.17;100730.41;5013092;28;20421;-84
2023/04/09 04:26:24;;;;;;;17.40;8.47;;;;;;;41.06;34.29;100724.41;5013484;28;20483;-85
2023/04/09 04:28:50;;;;;;;21.97;10.30;;;;;;;41.18;34.47;100735.38;5013253;28;20424;-85
2023/04/09 04:31:16;;;;;;;25.10;9.97;;;;;;;41.18;34.33;100750.91;5012740;28;20464;-85
2023/04/09 04:33:42;;;;;;;19.83;9.13;;;;;;;41.13;34.19;100760.09;5013308;28;20460;-85
2023/04/09 04:36:10;;;;;;;18.20;10.00;;;;;;;41.19;34.60;100766.94;5013406;28;20494;-85
2023/04/09 04:38:37;;;;;;;16.83;10.77;;;;;;;41.21;34.31;100788.34;5014526;28;20420;-84
2023/04/09 04:41:03;;;;;;;14.63;9.57;;;;;;;41.15;34.40;100795.91;5014743;28;20771;-86
2023/04/09 04:43:30;;;;;;;18.00;10.07;;;;;;;40.83;34.82;100810.16;5013179;28;20420;-86
2023/04/09 04:45:56;;;;;;;16.33;11.13;;;;;;;40.72;35.21;100832.28;5013253;28;20817;-87
2023/04/09 04:48:22;;;;;;;14.30;11.23;;;;;;;40.40;35.73;100843.72;5012914;28;20429;-87
2023/04/09 04:50:55;;;;;;;15.73;11.20;;;;;;;40.18;35.96;100850.16;5012714;28;20456;-86
2023/04/09 04:53:21;;;;;;;17.73;12.03;;;;;;;40.20;35.95;100843.25;5002729;28;20410;-86
2023/04/09 04:55:47;;;;;;;19.70;11.57;;;;;;;39.99;36.46;100858.63;5012889;28;20463;-87
2023/04/09 04:58:13;;;;;;;22.00;11.20;;;;;;;40.25;36.17;100870.28;5010731;28;20409;-86
2023/04/09 05:00:39;;;;;;;18.23;9.83;;;;;;;40.37;35.97;100868.81;5011596;28;20475;-86
2023/04/09 05:03:05;;;;;;;18.37;10.50;;;;;;;40.19;36.20;100877.00;5012654;28;20441;-87
2023/04/09 05:05:31;;;;;;;19.03;9.13;;;;;;;40.42;36.16;100865.94;5012536;28;20455;-86
2023/04/09 05:07:58;;;;;;;17.83;9.20;;;;;;;40.70;35.80;100866.34;5012658;28;20467;-87
2023/04/09 05:10:24;;;;;;;18.40;10.23;;;;;;;40.86;35.26;100872.84;5012934;28;20431;-87
2023/04/09 05:12:50;;;;;;;20.73;10.00;;;;;;;40.51;36.15;100875.69;5017207;28;20499;-86
2023/04/09 05:15:16;;;;;;;20.40;9.53;;;;;;;40.18;36.63;100877.31;5003412;28;20481;-86
2023/04/09 05:17:42;;;;;;;20.00;10.70;;;;;;;40.25;36.45;100896.66;5013037;28;20452;-86
2023/04/09 05:20:10;;;;;;;17.97;9.63;;;;;;;39.79;37.36;100913.59;5012555;28;20928;-86
2023/04/09 05:22:36;;;;;;;19.80;9.33;;;;;;;39.76;37.40;100913.06;5012755;28;20436;-86
2023/04/09 05:25:03;;;;;;;16.50;10.87;;;;;;;39.88;37.47;100917.09;5012255;28;20482;-85
2023/04/09 05:27:29;;;;;;;15.67;9.40;;;;;;;39.99;37.29;100935.47;5012592;28;20452;-86
2023/04/09 05:29:55;;;;;;;25.77;10.17;;;;;;;39.34;38.11;100940.88;5012375;28;20464;-86
2023/04/09 05:32:21;;;;;;;13.13;8.10;;;;;;;39.16;38.43;100951.66;5011948;28;20495;-84
2023/04/09 05:34:47;;;;;;;16.03;8.20;;;;;;;38.91;38.63;100953.13;5012373;28;20586;-85
2023/04/09 05:37:13;;;;;;;13.90;8.63;;;;;;;39.31;37.51;100957.81;5012561;28;20511;-83
2023/04/09 05:39:39;;;;;;;13.57;8.33;;;;;;;38.92;37.58;100957.44;5012259;28;20456;-84
2023/04/09 05:42:05;;;;;;;17.20;7.77;;;;;;;38.44;37.93;100963.47;5012262;28;20420;-84
2023/04/09 05:44:31;;;;;;;16.43;9.10;;;;;;;38.22;38.03;100973.44;5012194;28;20456;-84
2023/04/09 05:46:57;;;;;;;14.83;7.83;;;;;;;38.25;37.96;100986.41;5012543;28;20849;-85
2023/04/09 05:49:24;;;;;;;14.17;7.67;;;;;;;37.92;38.40;100995.47;5011899;28;20425;-84
2023/04/09 05:51:50;;;;;;;11.73;6.90;;;;;;;38.27;38.43;100995.84;5011906;28;20471;-85
2023/04/09 05:54:16;;;;;;;16.90;5.33;;;;;;;38.17;38.04;101013.09;5011989;28;20494;-84
2023/04/09 05:56:43;;;;;;;12.40;5.33;;;;;;;37.88;38.56;101009.94;5011604;28;20424;-84
2023/04/09 05:59:09;;;;;;;11.90;6.03;;;;;;;37.66;38.63;100997.06;5025260;28;20420;-84
2023/04/09 06:01:35;;;;;;;11.67;4.27;;;;;;;37.83;38.42;100993.78;5011339;28;20428;-85
2023/04/09 06:04:01;;;;;;;17.53;8.40;;;;;;;37.61;38.98;100995.25;5013007;28;20443;-85
2023/04/09 06:06:27;;;;;;;16.30;5.47;;;;;;;38.04;38.30;101008.50;5011640;28;20803;-85
2023/04/09 06:08:53;;;;;;;14.93;6.60;;;;;;;38.37;37.50;100995.63;5011017;28;20788;-85
2023/04/09 06:11:20;;;;;;;21.87;5.50;;;;;;;38.18;37.83;100993.03;5011668;28;20844;-84
2023/04/09 06:13:46;;;;;;;15.87;4.30;;;;;;;38.39;37.80;100984.47;5011098;28;20494;-84
2023/04/09 06:16:12;;;;;;;10.60;5.00;;;;;;;38.07;37.76;100991.66;5011021;28;20432;-86
2023/04/09 06:18:38;;;;;;;7.90;3.40;;;;;;;37.80;38.41;100978.94;5011400;28;20476;-86
2023/04/09 06:21:06;;;;;;;9.10;4.07;;;;;;;37.85;38.06;100995.09;5011558;28;21075;-86
2023/04/09 06:23:34;;;;;;;7.90;3.60;;;;;;;37.95;37.92;100991.38;5011362;28;20424;-84
2023/04/09 06:26:00;;;;;;;8.60;4.67;;;;;;;38.31;37.42;100979.78;5011643;28;20812;-87
2023/04/09 06:28:28;;;;;;;10.67;4.83;;;;;;;37.77;38.40;100981.44;5010673;28;20799;-86
2023/04/09 06:30:54;;;;;;;11.03;5.00;;;;;;;38.08;38.03;100985.13;5011421;28;21082;-84
2023/04/09 06:33:21;;;;;;;9.90;4.70;;;;;;;38.28;37.47;100988.53;5028110;28;20512;-85
2023/04/09 06:35:48;;;;;;;13.40;5.17;;;;;;;38.01;38.43;100987.47;5011351;28;20968;-86
2023/04/09 06:38:14;;;;;;;8.90;5.10;;;;;;;38.24;37.66;101001.03;5011227;28;20425;-83
2023/04/09 06:40:43;;;;;;;17.07;4.47;;;;;;;38.40;38.04;100991.50;5012430;28;20478;-85
2023/04/09 06:43:10;;;;;;;10.67;4.27;;;;;;;38.18;38.16;100993.03;5010755;28;20816;-84
2023/04/09 06:45:36;;;;;;;10.60;5.67;;;;;;;38.38;37.63;101001.84;5010736;28;21026;-84
2023/04/09 06:48:02;;;;;;;8.70;5.07;;;;;;;38.16;37.93;100999.84;5012395;28;20503;-85
2023/04/09 06:50:29;;;;;;;9.37;4.90;;;;;;;38.51;37.27;101000.19;5011104;28;20428;-85
2023/04/09 06:52:56;;;;;;;14.07;7.90;;;;;;;38.64;37.23;101005.56;5010941;28;20423;-86
2023/04/09 06:55:22;;;;;;;18.43;14.10;;;;;;;39.00;36.41;101007.44;5010825;28;20448;-86
2023/04/09 06:57:48;;;;;;;21.97;13.60;;;;;;;39.02;36.48;101007.13;5011329;28;20428;-85
2023/04/09 07:00:18;;;;;;;11.67;6.03;;;;;;;38.62;36.80;101007.78;5011192;28;20475;-85
2023/04/09 07:02:44;;;;;;;8.80;5.23;;;;;;;39.37;35.68;101024.41;5010750;28;20482;-87
2023/04/09 07:05:10;;;;;;;8.83;3.80;;;;;;;39.39;35.22;101031.13;5012563;28;20424;-85
2023/04/09 07:07:36;;;;;;;11.93;3.93;;;;;;;39.16;35.18;101037.69;5008084;28;20514;-87
2023/04/09 07:10:02;;;;;;;10.30;4.67;;;;;;;39.14;35.00;101056.19;5005639;28;20536;-85
2023/04/09 07:12:36;;;;;;;11.30;4.30;;;;;;;38.90;35.16;101045.66;5010768;28;21084;-83
2023/04/09 07:15:06;;;;;;;9.50;4.67;;;;;;;39.06;35.16;101051.50;5010331;28;20480;-83
2023/04/09 07:17:33;;;;;;;12.77;5.90;;;;;;;38.91;35.29;101055.38;5010914;28;20999;-83
2023/04/09 07:19:59;;;;;;;10.27;4.63;;;;;;;39.14;34.68;101059.69;5010865;28;20455;-83
2023/04/09 07:22:26;;;;;;;14.30;5.03;;;;;;;39.26;34.67;101067.28;5010717;28;20515;-83
2023/04/09 07:24:55;;;;;;;11.93;5.00;;;;;;;38.78;35.43;101058.94;5010512;28;20458;-83
2023/04/09 07:27:35;;;;;;;9.20;4.90;;;;;;;39.24;34.94;101058.66;5024310;28;20479;-86
2023/04/09 07:30:02;;;;;;;13.50;6.43;;;;;;;39.43;34.59;101050.31;5009082;28;20448;-81
2023/04/09 07:32:28;;;;;;;10.50;5.30;;;;;;;39.31;34.19;101047.38;5009686;28;20468;-85
2023/04/09 07:34:54;;;;;;;13.73;8.67;;;;;;;39.49;34.24;101043.63;5010841;28;20435;-86
2023/04/09 07:37:20;;;;;;;19.10;10.70;;;;;;;39.55;33.83;101033.44;5010595;28;20436;-86
2023/04/09 07:39:47;;;;;;;21.70;13.53;;;;;;;39.29;34.07;101034.13;5012774;28;20474;-87
2023/04/09 07:42:13;;;;;;;9.50;6.83;;;;;;;39.40;33.84;101013.72;5014308;28;20597;-85
2023/04/09 07:44:39;;;;;;;11.97;5.10;;;;;;;39.52;33.98;101013.13;5013882;28;20912;-85
2023/04/09 07:47:07;;;;;;;12.17;6.17;;;;;;;39.63;33.33;101019.13;5014188;28;20809;-86
2023/04/09 07:49:36;;;;;;;13.00;5.30;;;;;;;39.25;33.53;101022.28;5014960;28;20523;-86
2023/04/09 07:52:02;;;;;;;15.17;6.53;;;;;;;39.22;33.74;101020.16;5014373;28;20976;-84
2023/04/09 07:54:30;;;;;;;12.63;7.40;;;;;;;39.65;33.31;101016.88;5014150;28;20448;-86
2023/04/09 07:56:56;;;;;;;17.23;6.60;;;;;;;39.81;33.04;101014.53;5014095;28;20440;-87
2023/04/09 07:59:23;;;;;;;12.20;6.70;;;;;;;40.06;32.60;101015.75;5014237;28;20416;-86
2023/04/09 08:01:49;;;;;;;18.60;7.33;;;;;;;40.05;32.45;101009.50;5015611;28;20427;-88
2023/04/09 08:04:15;;;;;;;16.80;9.00;;;;;;;40.16;32.40;101016.25;5013757;28;20502;-87
2023/04/09 08:06:41;;;;;;;15.20;9.00;;;;;;;40.16;32.09;101021.69;5011367;28;20428;-87
2023/04/09 08:09:07;;;;;;;16.17;9.50;;;;;;;40.25;31.82;101030.63;5013609;28;20425;-85
2023/04/09 08:11:33;;;;;;;13.93;7.47;;;;;;;40.13;32.52;101044.03;5013543;28;20466;-86
2023/04/09 08:14:03;;;;;;;19.00;9.00;;;;;;;40.33;32.21;101055.41;5013955;28;20839;-88
2023/04/09 08:16:29;;;;;;;14.67;6.67;;;;;;;40.34;31.91;101055.09;5012420;28;20425;-88
2023/04/09 08:18:56;;;;;;;13.80;7.50;;;;;;;40.21;31.87;101040.53;5012653;28;20428;-89
2023/04/09 08:21:22;;;;;;;11.40;8.47;;;;;;;40.33;31.89;101034.50;5012485;28;20478;-89
2023/04/09 08:23:48;;;;;;;14.73;9.77;;;;;;;40.50;31.42;101036.41;5011674;28;20839;-88
2023/04/09 08:26:14;;;;;;;20.10;8.70;;;;;;;40.42;31.75;101034.47;5012909;28;20423;-87
2023/04/09 08:28:40;;;;;;;13.43;8.47;;;;;;;40.53;31.69;101030.34;5011690;28;20472;-88
2023/04/09 08:31:08;;;;;;;17.50;10.07;;;;;;;40.16;32.22;101027.09;5014594;28;20456;-88
2023/04/09 08:33:36;;;;;;;21.03;8.10;;;;;;;40.29;31.92;101025.34;5014103;28;20822;-85
2023/04/09 08:36:06;;;;;;;17.23;10.30;;;;;;;40.16;31.77;101010.81;5014833;28;20429;-88
2023/04/09 08:38:32;;;;;;;13.40;8.30;;;;;;;40.35;31.52;101013.22;5013802;28;20433;-88
2023/04/09 08:40:58;;;;;;;20.60;7.97;;;;;;;40.37;30.96;101010.16;5013508;28;20421;-89
2023/04/09 08:43:26;;;;;;;21.43;9.33;;;;;;;40.43;31.23;101006.97;5013230;28;20424;-86
2023/04/09 08:45:56;;;;;;;17.93;9.03;;;;;;;40.18;31.50;100994.97;5013139;28;20424;-87
2023/04/09 08:48:24;;;;;;;22.93;11.60;;;;;;;40.40;30.82;100980.44;5000397;28;20507;-86
2023/04/09 08:50:50;;;;;;;25.77;11.57;;;;;;;40.62;30.88;100982.19;5012235;28;20999;-81
2023/04/09 08:53:18;;;;;;;22.23;9.50;;;;;;;40.64;30.83;100988.13;5013532;28;20431;-89
2023/04/09 08:55:47;;;;;;;18.00;8.67;;;;;;;40.84;30.63;100981.19;5013181;28;20428;-89
2023/04/09 08:58:13;;;;;;;26.27;12.73;;;;;;;40.70;30.76;100975.13;5015091;28;20429;-87
2023/04/09 09:00:39;;;;;;;20.73;11.60;;;;;;;40.79;30.04;100976.72;5011457;28;20426;-89
2023/04/09 09:03:11;;;;;;;22.80;11.93;;;;;;;40.71;29.93;100979.47;5014537;28;20434;-90
2023/04/09 09:05:42;;;;;;;28.20;11.00;;;;;;;40.69;30.28;100977.06;5013601;28;20431;-88
2023/04/09 09:08:23;;;;;;;26.23;9.80;;;;;;;40.82;30.69;100961.66;5013856;28;20964;-87
2023/04/09 09:10:49;;;;;;;19.50;11.70;;;;;;;40.92;30.88;100957.84;4992349;28;20463;-87
2023/04/09 09:13:23;;;;;;;18.27;10.47;;;;;;;40.88;30.93;100960.38;5012628;28;20878;-88
2023/04/09 09:16:10;;;;;;;15.53;9.40;;;;;;;40.85;30.72;100955.59;5012933;28;20467;-87
2023/04/09 09:18:41;;;;;;;20.20;9.47;;;;;;;40.79;31.29;100951.44;5014455;28;20482;-88
2023/04/09 09:21:15;;;;;;;19.30;10.30;;;;;;;40.83;31.38;100957.06;5013805;28;20416;-87
2023/04/09 09:23:43;;;;;;;20.70;10.73;;;;;;;40.90;31.60;100949.19;5014109;28;20420;-89
2023/04/09 09:26:19;;;;;;;16.43;8.80;;;;;;;41.01;31.57;100950.47;5012711;28;20504;-87
2023/04/09 09:28:49;;;;;;;18.50;8.97;;;;;;;40.98;31.54;100953.81;5014119;28;20504;-87
2023/04/09 09:31:18;;;;;;;19.17;11.93;;;;;;;41.19;31.56;100957.44;5012660;28;20463;-87
2023/04/09 09:33:44;;;;;;;24.73;10.47;;;;;;;41.24;31.33;100962.69;5012686;28;20471;-86
2023/04/09 09:36:10;;;;;;;17.27;9.50;;;;;;;41.17;31.91;100961.59;5014131;28;20424;-88
2023/04/09 09:38:52;;;;;;;24.07;12.07;;;;;;;41.31;31.87;100951.28;5011966;28;20416;-88
2023/04/09 09:41:18;;;;;;;16.43;9.60;;;;;;;41.23;32.39;100958.34;5010398;28;20960;-87
2023/04/09 09:43:45;;;;;;;34.50;13.03;;;;;;;41.20;32.35;100959.03;5007226;28;20502;-88
2023/04/09 09:46:11;;;;;;;21.30;12.77;;;;;;;41.24;32.23;100951.00;5011864;28;20783;-87
2023/04/09 09:48:38;;;;;;;23.10;10.67;;;;;;;41.23;32.01;100954.84;5012499;28;20424;-87
2023/04/09 09:51:13;;;;;;;22.30;11.13;;;;;;;41.47;32.44;100954.28;5012560;28;20908;-88
2023/04/09 09:53:42;;;;;;;21.13;10.70;;;;;;;41.64;32.14;100956.91;4999606;28;20428;-90
2023/04/09 09:56:17;;;;;;;24.60;9.50;;;;;;;41.24;32.50;100956.44;5008551;28;20432;-94
2023/04/09 09:58:52;;;;;;;20.37;10.53;;;;;;;41.51;31.99;100960.69;5002894;28;20423;-86
2023/04/09 10:01:20;;;;;;;20.30;9.07;;;;;;;41.57;31.88;100956.63;5013460;28;20797;-92
2023/04/09 10:03:51;;;;;;;15.67;8.17;;;;;;;41.70;32.07;100952.06;5014903;28;20463;-87
2023/04/09 10:06:18;;;;;;;19.80;7.90;;;;;;;41.75;32.63;100954.63;5012768;28;20452;-87
2023/04/09 10:08:47;;;;;;;16.90;11.80;;;;;;;41.80;32.60;100957.94;5013053;28;20556;-88
2023/04/09 10:11:13;;;;;;;33.60;11.80;;;;;;;41.86;32.83;100953.88;5011786;28;20491;-86
2023/04/09 10:13:45;;;;;;;17.60;8.60;;;;;;;41.83;32.44;100957.28;5012524;28;21008;-89
2023/04/09 10:16:11;;;;;;;14.20;8.13;;;;;;;41.88;32.51;100952.78;5011691;28;20432;-86
2023/04/09 10:18:44;;;;;;;21.83;9.60;;;;;;;41.94;32.68;100951.44;5015426;28;20425;-84
2023/04/09 10:21:37;;;;;;;21.83;9.57;;;;;;;41.97;33.05;100950.78;5012572;28;20475;-88
2023/04/09 10:24:06;;;;;;;25.40;9.80;;;;;;;42.09;33.41;100942.66;5012628;28;21000;-80
2023/04/09 10:30:34;;;;;;;16.73;7.47;;;;;;;42.12;33.77;100914.75;5006611;28;20389;-85
2023/04/09 10:37:02;;;;;;;23.90;8.50;;;;;;;41.79;33.51;100944.66;5004264;28;20433;-84
2023/04/09 10:39:30;;;;;;;23.10;9.60;;;;;;;42.10;32.54;100957.88;5015439;28;20444;-87
2023/04/09 10:42:03;;;;;;;16.30;8.87;;;;;;;42.08;32.74;100963.66;4992516;28;20420;-88
2023/04/09 10:44:31;;;;;;;15.47;9.10;;;;;;;42.22;33.41;100968.88;5007602;28;20444;-88
2023/04/09 10:46:57;;;;;;;17.93;8.60;;;;;;;42.19;34.15;100968.75;4993340;28;20428;-87
2023/04/09 10:49:26;;;;;;;21.73;11.80;;;;;;;42.09;34.61;100969.91;5008947;28;20428;-88
2023/04/09 10:52:33;;;;;;;23.93;11.57;;;;;;;41.93;34.37;100966.19;4988625;28;20456;-84
2023/04/09 10:54:59;;;;;;;22.03;10.20;;;;;;;42.26;34.07;100979.91;5006948;28;20436;-82
2023/04/09 10:57:27;;;;;;;24.43;9.57;;;;;;;42.21;33.98;100974.66;5012112;28;20924;-87
2023/04/09 10:59:55;;;;;;;16.47;8.50;;;;;;;42.23;33.67;100965.00;4994722;28;20432;-88
2023/04/09 11:02:39;;;;;;;18.33;8.57;;;;;;;42.16;33.71;100944.84;5000333;28;20482;-87
2023/04/09 11:05:17;;;;;;;17.00;6.90;;;;;;;42.15;34.00;100957.69;5006196;28;20519;-86
2023/04/09 11:07:46;;;;;;;16.67;7.00;;;;;;;42.08;33.58;100949.25;5012694;28;20456;-88
2023/04/09 11:10:13;;;;;;;24.83;8.57;;;;;;;42.08;33.97;100941.06;5014013;28;20451;-90
2023/04/09 11:12:49;;;;;;;16.13;8.60;;;;;;;41.84;34.68;100936.28;5014671;28;20463;-92
2023/04/09 11:15:19;;;;;;;15.23;7.90;;;;;;;41.68;34.90;100933.34;5015673;28;20484;-89
2023/04/09 11:17:47;;;;;;;19.23;8.40;;;;;;;41.78;34.75;100927.50;5018666;28;20436;-90
2023/04/09 11:20:19;;;;;;;15.73;6.77;;;;;;;41.87;34.50;100935.63;5016064;28;21022;-89
2023/04/09 11:22:46;;;;;;;19.17;10.37;;;;;;;41.75;35.10;100939.09;5011085;28;20429;-91
2023/04/09 11:25:22;;;;;;;13.47;6.33;;;;;;;41.84;35.20;100936.28;5031990;28;20507;-90
2023/04/09 11:27:48;;;;;;;15.07;6.70;;;;;;;41.89;34.53;100938.81;5016474;28;20936;-91